sensor_id;sensor_type;location;lat;lon;timestamp;pressure;altitude;pressure_sealevel;temperature;humidity
19783;BME280;10051;40.294;-3.754;2023-03-13T00:01:25;94331.97;;;15.81;76.06
19783;BME280;10051;40.294;-3.754;2023-03-13T00:03:51;94344.81;;;15.87;76.11
19783;BME280;10051;40.294;-3.754;2023-03-13T00:06:20;94380.13;;;16.05;76.30
19783;BME280;10051;40.294;-3.754;2023-03-13T00:08:45;94308.22;;;15.58;76.28
19783;BME280;10051;40.294;-3.754;2023-03-13T00:11:13;94375.56;;;15.88;76.36
19783;BME280;10051;40.294;-3.754;2023-03-13T00:13:40;94290.16;;;15.28;76.64
19783;BME280;10051;40.294;-3.754;2023-03-13T00:16:15;94330.00;;;15.55;77.05
19783;BME280;10051;40.294;-3.754;2023-03-13T00:18:45;94355.19;;;15.75;77.05
19783;BME280;10051;40.294;-3.754;2023-03-13T00:21:12;94356.91;;;15.80;77.33
19783;BME280;10051;40.294;-3.754;2023-03-13T00:23:38;94346.25;;;15.62;77.36
19783;BME280;10051;40.294;-3.754;2023-03-13T00:26:07;94356.16;;;15.79;77.28
19783;BME280;10051;40.294;-3.754;2023-03-13T00:28:34;94337.22;;;15.63;78.00
19783;BME280;10051;40.294;-3.754;2023-03-13T00:31:02;94353.44;;;15.70;78.34
19783;BME280;10051;40.294;-3.754;2023-03-13T00:33:31;94344.25;;;15.68;78.25
19783;BME280;10051;40.294;-3.754;2023-03-13T00:36:00;94338.97;;;15.76;77.96
19783;BME280;10051;40.294;-3.754;2023-03-13T00:38:28;94352.06;;;15.73;78.22
19783;BME280;10051;40.294;-3.754;2023-03-13T00:40:58;94200.66;;;14.76;78.50
19783;BME280;10051;40.294;-3.754;2023-03-13T00:43:24;94169.16;;;14.43;78.72
19783;BME280;10051;40.294;-3.754;2023-03-13T00:45:49;94285.31;;;15.22;79.11
19783;BME280;10051;40.294;-3.754;2023-03-13T00:48:15;94240.56;;;14.89;79.21
19783;BME280;10051;40.294;-3.754;2023-03-13T00:50:40;94326.53;;;15.45;79.55
19783;BME280;10051;40.294;-3.754;2023-03-13T00:53:06;94250.47;;;15.06;79.49
19783;BME280;10051;40.294;-3.754;2023-03-13T00:55:32;94275.72;;;15.12;79.68
19783;BME280;10051;40.294;-3.754;2023-03-13T00:57:57;94336.69;;;15.52;79.98
19783;BME280;10051;40.294;-3.754;2023-03-13T01:00:23;94334.22;;;15.56;80.18
19783;BME280;10051;40.294;-3.754;2023-03-13T01:02:48;94290.16;;;15.28;80.22
19783;BME280;10051;40.294;-3.754;2023-03-13T01:05:14;94307.97;;;15.37;80.09
19783;BME280;10051;40.294;-3.754;2023-03-13T01:07:40;94281.59;;;15.31;79.68
19783;BME280;10051;40.294;-3.754;2023-03-13T01:10:06;94288.47;;;15.32;79.82
19783;BME280;10051;40.294;-3.754;2023-03-13T01:12:31;94288.16;;;15.34;79.87
19783;BME280;10051;40.294;-3.754;2023-03-13T01:14:57;94274.38;;;15.23;79.71
19783;BME280;10051;40.294;-3.754;2023-03-13T01:17:23;94330.28;;;15.44;80.00
19783;BME280;10051;40.294;-3.754;2023-03-13T01:19:48;94340.59;;;15.23;81.23
19783;BME280;10051;40.294;-3.754;2023-03-13T01:22:14;94217.31;;;14.31;82.45
19783;BME280;10051;40.294;-3.754;2023-03-13T01:24:40;94277.09;;;14.55;83.85
19783;BME280;10051;40.294;-3.754;2023-03-13T01:27:05;94312.13;;;14.75;84.84
19783;BME280;10051;40.294;-3.754;2023-03-13T01:29:31;94328.41;;;14.91;84.65
19783;BME280;10051;40.294;-3.754;2023-03-13T01:31:57;94327.81;;;14.94;84.11
19783;BME280;10051;40.294;-3.754;2023-03-13T01:34:22;94233.53;;;14.38;83.93
19783;BME280;10051;40.294;-3.754;2023-03-13T01:36:48;94293.75;;;15.01;83.39
19783;BME280;10051;40.294;-3.754;2023-03-13T01:39:16;94283.28;;;14.96;83.25
19783;BME280;10051;40.294;-3.754;2023-03-13T01:41:42;94294.41;;;15.07;82.69
19783;BME280;10051;40.294;-3.754;2023-03-13T01:44:27;94313.63;;;15.21;82.62
19783;BME280;10051;40.294;-3.754;2023-03-13T01:46:53;94299.78;;;14.93;83.01
19783;BME280;10051;40.294;-3.754;2023-03-13T01:51:48;94311.34;;;14.74;85.29
19783;BME280;10051;40.294;-3.754;2023-03-13T01:54:21;94305.66;;;14.67;86.14
19783;BME280;10051;40.294;-3.754;2023-03-13T01:57:00;94305.16;;;14.65;86.06
19783;BME280;10051;40.294;-3.754;2023-03-13T01:59:36;94256.75;;;14.41;86.63
19783;BME280;10051;40.294;-3.754;2023-03-13T02:02:03;94291.69;;;14.52;87.28
19783;BME280;10051;40.294;-3.754;2023-03-13T02:04:34;94277.97;;;14.50;87.27
19783;BME280;10051;40.294;-3.754;2023-03-13T02:07:07;94286.81;;;14.46;87.51
19783;BME280;10051;40.294;-3.754;2023-03-13T02:09:36;94196.06;;;14.00;86.76
19783;BME280;10051;40.294;-3.754;2023-03-13T02:12:16;94277.75;;;14.61;86.62
19783;BME280;10051;40.294;-3.754;2023-03-13T02:14:44;94255.97;;;14.64;85.59
19783;BME280;10051;40.294;-3.754;2023-03-13T02:17:12;94276.34;;;14.77;85.40
19783;BME280;10051;40.294;-3.754;2023-03-13T02:19:49;94243.47;;;14.55;85.42
19783;BME280;10051;40.294;-3.754;2023-03-13T02:27:21;94247.81;;;14.74;85.15
19783;BME280;10051;40.294;-3.754;2023-03-13T02:29:48;94283.94;;;15.01;84.99
19783;BME280;10051;40.294;-3.754;2023-03-13T02:32:14;94222.19;;;14.61;85.23
19783;BME280;10051;40.294;-3.754;2023-03-13T02:34:41;94235.34;;;14.75;85.33
19783;BME280;10051;40.294;-3.754;2023-03-13T02:37:09;94275.97;;;15.01;84.74
19783;BME280;10051;40.294;-3.754;2023-03-13T02:39:40;94171.88;;;14.29;85.15
19783;BME280;10051;40.294;-3.754;2023-03-13T02:42:07;94271.13;;;14.95;85.01
19783;BME280;10051;40.294;-3.754;2023-03-13T02:44:38;94279.06;;;14.95;85.27
19783;BME280;10051;40.294;-3.754;2023-03-13T02:47:04;94274.69;;;14.90;85.02
19783;BME280;10051;40.294;-3.754;2023-03-13T02:49:30;94240.50;;;14.71;85.15
19783;BME280;10051;40.294;-3.754;2023-03-13T02:52:08;94205.34;;;14.56;85.19
19783;BME280;10051;40.294;-3.754;2023-03-13T02:54:36;94206.41;;;14.55;85.67
19783;BME280;10051;40.294;-3.754;2023-03-13T02:57:04;94240.66;;;14.75;85.46
19783;BME280;10051;40.294;-3.754;2023-03-13T02:59:30;94246.34;;;14.68;85.51
19783;BME280;10051;40.294;-3.754;2023-03-13T03:01:56;94219.19;;;14.31;87.53
19783;BME280;10051;40.294;-3.754;2023-03-13T03:04:24;94227.53;;;14.24;88.52
19783;BME280;10051;40.294;-3.754;2023-03-13T03:06:50;94183.81;;;14.04;88.91
19783;BME280;10051;40.294;-3.754;2023-03-13T03:09:17;94121.09;;;13.73;88.40
19783;BME280;10051;40.294;-3.754;2023-03-13T03:11:43;94120.22;;;13.63;89.16
19783;BME280;10051;40.294;-3.754;2023-03-13T03:14:09;94204.75;;;14.14;89.94
19783;BME280;10051;40.294;-3.754;2023-03-13T03:16:36;94196.06;;;14.00;90.82
19783;BME280;10051;40.294;-3.754;2023-03-13T03:19:01;94184.34;;;13.92;90.82
19783;BME280;10051;40.294;-3.754;2023-03-13T03:21:27;94207.56;;;14.18;90.12
19783;BME280;10051;40.294;-3.754;2023-03-13T03:23:53;94214.19;;;14.29;89.11
19783;BME280;10051;40.294;-3.754;2023-03-13T03:26:19;94107.66;;;13.69;88.47
19783;BME280;10051;40.294;-3.754;2023-03-13T03:28:45;94194.16;;;14.37;88.09
19783;BME280;10051;40.294;-3.754;2023-03-13T03:31:12;94192.00;;;14.39;88.25
19783;BME280;10051;40.294;-3.754;2023-03-13T03:33:40;94183.72;;;14.32;87.53
19783;BME280;10051;40.294;-3.754;2023-03-13T03:36:08;94183.56;;;14.37;87.27
19783;BME280;10051;40.294;-3.754;2023-03-13T03:38:34;94202.34;;;14.49;87.41
19783;BME280;10051;40.294;-3.754;2023-03-13T03:41:00;94205.91;;;14.45;87.87
19783;BME280;10051;40.294;-3.754;2023-03-13T03:43:26;94164.28;;;14.13;88.22
19783;BME280;10051;40.294;-3.754;2023-03-13T03:45:52;94219.00;;;14.50;87.96
19783;BME280;10051;40.294;-3.754;2023-03-13T03:48:18;94217.44;;;14.49;87.87
19783;BME280;10051;40.294;-3.754;2023-03-13T03:50:43;94211.06;;;14.50;87.52
19783;BME280;10051;40.294;-3.754;2023-03-13T03:53:09;94105.41;;;13.76;87.43
19783;BME280;10051;40.294;-3.754;2023-03-13T03:55:34;94120.81;;;13.97;87.26
19783;BME280;10051;40.294;-3.754;2023-03-13T03:58:00;94137.78;;;14.05;87.79
19783;BME280;10051;40.294;-3.754;2023-03-13T04:00:26;94163.53;;;14.13;88.18
19783;BME280;10051;40.294;-3.754;2023-03-13T04:02:52;94174.84;;;14.13;88.58
19783;BME280;10051;40.294;-3.754;2023-03-13T04:05:18;94112.78;;;13.65;88.81
19783;BME280;10051;40.294;-3.754;2023-03-13T04:07:44;94198.97;;;14.12;89.26
19783;BME280;10051;40.294;-3.754;2023-03-13T04:10:10;94067.16;;;13.00;90.07
19783;BME280;10051;40.294;-3.754;2023-03-13T04:12:36;94084.69;;;13.19;90.60
19783;BME280;10051;40.294;-3.754;2023-03-13T04:15:02;94193.31;;;14.05;90.15
19783;BME280;10051;40.294;-3.754;2023-03-13T04:17:27;94123.84;;;13.67;89.98
19783;BME280;10051;40.294;-3.754;2023-03-13T04:19:53;94138.75;;;13.86;88.90
19783;BME280;10051;40.294;-3.754;2023-03-13T04:22:19;94148.69;;;14.03;88.77
19783;BME280;10051;40.294;-3.754;2023-03-13T04:24:44;94069.28;;;13.49;89.11
19783;BME280;10051;40.294;-3.754;2023-03-13T04:27:10;94163.75;;;14.03;89.79
19783;BME280;10051;40.294;-3.754;2023-03-13T04:29:35;94120.16;;;13.55;90.82
19783;BME280;10051;40.294;-3.754;2023-03-13T04:32:01;94159.75;;;13.68;91.84
19783;BME280;10051;40.294;-3.754;2023-03-13T04:34:27;94171.84;;;13.83;92.22
19783;BME280;10051;40.294;-3.754;2023-03-13T04:36:53;94178.47;;;13.95;91.47
19783;BME280;10051;40.294;-3.754;2023-03-13T04:39:19;94099.44;;;13.34;91.71
19783;BME280;10051;40.294;-3.754;2023-03-13T04:41:53;94165.41;;;13.76;92.43
19783;BME280;10051;40.294;-3.754;2023-03-13T04:44:19;94065.19;;;13.06;92.60
19783;BME280;10051;40.294;-3.754;2023-03-13T04:46:46;94177.22;;;13.78;92.32
19783;BME280;10051;40.294;-3.754;2023-03-13T04:49:12;94124.41;;;13.42;91.50
19783;BME280;10051;40.294;-3.754;2023-03-13T04:51:40;94134.81;;;13.61;90.93
19783;BME280;10051;40.294;-3.754;2023-03-13T04:54:05;94090.84;;;13.28;91.08
19783;BME280;10051;40.294;-3.754;2023-03-13T04:56:31;94151.06;;;13.68;90.65
19783;BME280;10051;40.294;-3.754;2023-03-13T04:58:56;94187.75;;;13.92;90.40
19783;BME280;10051;40.294;-3.754;2023-03-13T05:01:22;94147.66;;;13.39;91.85
19783;BME280;10051;40.294;-3.754;2023-03-13T05:03:48;94095.09;;;12.73;93.67
19783;BME280;10051;40.294;-3.754;2023-03-13T05:06:13;94211.41;;;13.33;94.41
19783;BME280;10051;40.294;-3.754;2023-03-13T05:08:39;94121.38;;;12.78;94.50
19783;BME280;10051;40.294;-3.754;2023-03-13T05:11:04;94192.66;;;13.34;94.33
19783;BME280;10051;40.294;-3.754;2023-03-13T05:13:30;94157.25;;;12.93;94.96
19783;BME280;10051;40.294;-3.754;2023-03-13T05:15:56;94208.50;;;13.20;95.27
19783;BME280;10051;40.294;-3.754;2023-03-13T05:18:22;94208.59;;;13.29;94.74
19783;BME280;10051;40.294;-3.754;2023-03-13T05:20:47;94221.59;;;13.39;94.08
19783;BME280;10051;40.294;-3.754;2023-03-13T05:23:13;94165.16;;;13.07;93.45
19783;BME280;10051;40.294;-3.754;2023-03-13T05:25:39;94221.91;;;13.52;93.29
19783;BME280;10051;40.294;-3.754;2023-03-13T05:28:05;94175.84;;;13.30;92.29
19783;BME280;10051;40.294;-3.754;2023-03-13T05:30:31;94212.78;;;13.58;92.09
19783;BME280;10051;40.294;-3.754;2023-03-13T05:32:56;94161.16;;;13.24;91.84
19783;BME280;10051;40.294;-3.754;2023-03-13T05:35:22;94200.28;;;13.50;91.93
19783;BME280;10051;40.294;-3.754;2023-03-13T05:37:47;94133.00;;;13.05;91.18
19783;BME280;10051;40.294;-3.754;2023-03-13T05:40:13;94189.13;;;13.39;91.21
19783;BME280;10051;40.294;-3.754;2023-03-13T05:42:39;94221.81;;;13.57;91.04
19783;BME280;10051;40.294;-3.754;2023-03-13T05:45:08;94223.38;;;13.58;90.95
19783;BME280;10051;40.294;-3.754;2023-03-13T05:47:35;94214.56;;;13.49;90.88
19783;BME280;10051;40.294;-3.754;2023-03-13T05:50:00;94117.09;;;12.83;90.78
19783;BME280;10051;40.294;-3.754;2023-03-13T05:52:26;94209.00;;;13.36;91.22
19783;BME280;10051;40.294;-3.754;2023-03-13T05:54:52;94116.69;;;12.75;90.99
19783;BME280;10051;40.294;-3.754;2023-03-13T05:57:18;94180.16;;;13.12;90.79
19783;BME280;10051;40.294;-3.754;2023-03-13T05:59:43;94206.81;;;13.11;93.06
19783;BME280;10051;40.294;-3.754;2023-03-13T06:02:09;94077.66;;;12.16;94.00
19783;BME280;10051;40.294;-3.754;2023-03-13T06:04:35;94139.44;;;12.57;93.76
19783;BME280;10051;40.294;-3.754;2023-03-13T06:07:01;94146.78;;;12.60;93.20
19783;BME280;10051;40.294;-3.754;2023-03-13T06:09:26;94178.19;;;12.90;93.06
19783;BME280;10051;40.294;-3.754;2023-03-13T06:11:52;94196.34;;;13.05;92.71
19783;BME280;10051;40.294;-3.754;2023-03-13T06:14:18;94121.66;;;12.63;92.16
19783;BME280;10051;40.294;-3.754;2023-03-13T06:16:43;94118.75;;;12.51;92.46
19783;BME280;10051;40.294;-3.754;2023-03-13T06:19:09;94118.75;;;12.51;92.81
19783;BME280;10051;40.294;-3.754;2023-03-13T06:21:36;94190.22;;;12.96;92.84
19783;BME280;10051;40.294;-3.754;2023-03-13T06:24:02;94217.78;;;13.18;92.84
19783;BME280;10051;40.294;-3.754;2023-03-13T06:26:27;94214.47;;;13.12;92.79
19783;BME280;10051;40.294;-3.754;2023-03-13T06:28:53;94190.41;;;13.00;92.89
19783;BME280;10051;40.294;-3.754;2023-03-13T06:31:19;94207.81;;;13.15;93.14
19783;BME280;10051;40.294;-3.754;2023-03-13T06:33:45;94207.03;;;13.14;93.27
19783;BME280;10051;40.294;-3.754;2023-03-13T06:36:10;94198.31;;;13.14;93.05
19783;BME280;10051;40.294;-3.754;2023-03-13T06:38:36;94163.69;;;12.87;93.31
19783;BME280;10051;40.294;-3.754;2023-03-13T06:41:02;94108.19;;;12.51;93.29
19783;BME280;10051;40.294;-3.754;2023-03-13T06:43:27;94204.75;;;13.07;93.25
19783;BME280;10051;40.294;-3.754;2023-03-13T06:45:53;94184.44;;;12.94;93.46
19783;BME280;10051;40.294;-3.754;2023-03-13T06:48:19;94128.13;;;12.57;93.47
19783;BME280;10051;40.294;-3.754;2023-03-13T06:50:47;94142.88;;;12.58;93.02
19783;BME280;10051;40.294;-3.754;2023-03-13T06:53:15;94196.16;;;13.02;92.56
19783;BME280;10051;40.294;-3.754;2023-03-13T06:55:42;94180.91;;;12.99;92.69
19783;BME280;10051;40.294;-3.754;2023-03-13T06:58:07;94183.88;;;12.97;93.17
19783;BME280;10051;40.294;-3.754;2023-03-13T07:00:33;94159.41;;;12.77;93.45
19783;BME280;10051;40.294;-3.754;2023-03-13T07:02:59;94180.44;;;12.97;93.76
19783;BME280;10051;40.294;-3.754;2023-03-13T07:05:24;94157.66;;;12.87;94.07
19783;BME280;10051;40.294;-3.754;2023-03-13T07:07:50;94177.03;;;12.96;93.88
19783;BME280;10051;40.294;-3.754;2023-03-13T07:10:16;94179.56;;;13.01;93.77
19783;BME280;10051;40.294;-3.754;2023-03-13T07:12:41;94198.03;;;13.15;93.90
19783;BME280;10051;40.294;-3.754;2023-03-13T07:15:07;94191.47;;;13.13;93.80
19783;BME280;10051;40.294;-3.754;2023-03-13T07:17:34;94075.16;;;12.39;93.32
19783;BME280;10051;40.294;-3.754;2023-03-13T07:19:59;94165.09;;;12.99;93.60
19783;BME280;10051;40.294;-3.754;2023-03-13T07:22:25;94155.50;;;13.03;93.32
19783;BME280;10051;40.294;-3.754;2023-03-13T07:24:51;94098.63;;;12.69;92.05
19783;BME280;10051;40.294;-3.754;2023-03-13T07:27:16;94183.25;;;13.28;91.64
19783;BME280;10051;40.294;-3.754;2023-03-13T07:29:45;94218.78;;;13.50;91.60
19783;BME280;10051;40.294;-3.754;2023-03-13T07:32:11;94217.81;;;13.60;90.87
19783;BME280;10051;40.294;-3.754;2023-03-13T07:34:36;94151.38;;;13.11;91.16
19783;BME280;10051;40.294;-3.754;2023-03-13T07:37:02;94182.09;;;13.48;90.29
19783;BME280;10051;40.294;-3.754;2023-03-13T07:39:28;94188.53;;;13.56;90.21
19783;BME280;10051;40.294;-3.754;2023-03-13T07:41:53;94204.88;;;13.58;90.34
19783;BME280;10051;40.294;-3.754;2023-03-13T07:44:19;94218.34;;;13.85;89.69
19783;BME280;10051;40.294;-3.754;2023-03-13T07:46:44;94202.69;;;13.88;89.13
19783;BME280;10051;40.294;-3.754;2023-03-13T07:49:12;94120.66;;;13.29;88.57
19783;BME280;10051;40.294;-3.754;2023-03-13T07:51:38;94212.63;;;13.91;88.92
19783;BME280;10051;40.294;-3.754;2023-03-13T07:54:04;94189.09;;;13.81;89.20
19783;BME280;10051;40.294;-3.754;2023-03-13T07:56:29;94213.91;;;13.94;89.63
19783;BME280;10051;40.294;-3.754;2023-03-13T07:58:55;94209.28;;;14.00;89.03
19783;BME280;10051;40.294;-3.754;2023-03-13T08:01:26;94147.31;;;13.69;89.24
19783;BME280;10051;40.294;-3.754;2023-03-13T08:03:54;94179.38;;;14.13;88.23
19783;BME280;10051;40.294;-3.754;2023-03-13T08:06:22;94160.16;;;14.21;87.77
19783;BME280;10051;40.294;-3.754;2023-03-13T08:08:49;94175.22;;;14.43;88.30
19783;BME280;10051;40.294;-3.754;2023-03-13T08:11:17;94210.00;;;14.82;88.24
19783;BME280;10051;40.294;-3.754;2023-03-13T08:13:43;94208.38;;;14.95;87.37
19783;BME280;10051;40.294;-3.754;2023-03-13T08:16:12;94217.44;;;15.03;87.50
19783;BME280;10051;40.294;-3.754;2023-03-13T08:18:40;94200.59;;;14.99;87.71
19783;BME280;10051;40.294;-3.754;2023-03-13T08:21:11;94076.84;;;14.33;86.92
19783;BME280;10051;40.294;-3.754;2023-03-13T08:23:38;94217.09;;;15.36;86.84
19783;BME280;10051;40.294;-3.754;2023-03-13T08:26:15;94078.47;;;14.51;86.53
19783;BME280;10051;40.294;-3.754;2023-03-13T08:28:42;94183.31;;;15.42;86.04
19783;BME280;10051;40.294;-3.754;2023-03-13T08:33:33;94216.94;;;15.99;86.32
19783;BME280;10051;40.294;-3.754;2023-03-13T08:36:05;94205.84;;;16.15;86.30
19783;BME280;10051;40.294;-3.754;2023-03-13T08:38:32;94183.09;;;15.96;87.22
19783;BME280;10051;40.294;-3.754;2023-03-13T08:40:57;94230.69;;;16.37;87.59
19783;BME280;10051;40.294;-3.754;2023-03-13T08:43:23;94178.22;;;16.16;87.42
19783;BME280;10051;40.294;-3.754;2023-03-13T08:45:54;94220.22;;;16.49;87.56
19783;BME280;10051;40.294;-3.754;2023-03-13T08:48:20;94187.41;;;16.36;87.46
19783;BME280;10051;40.294;-3.754;2023-03-13T08:50:46;94228.75;;;16.81;86.39
19783;BME280;10051;40.294;-3.754;2023-03-13T08:53:11;94198.63;;;16.68;85.53
19783;BME280;10051;40.294;-3.754;2023-03-13T08:55:37;94186.59;;;16.71;84.66
19783;BME280;10051;40.294;-3.754;2023-03-13T08:58:03;94202.78;;;16.95;84.24
19783;BME280;10051;40.294;-3.754;2023-03-13T09:00:28;94215.09;;;17.09;83.63
19783;BME280;10051;40.294;-3.754;2023-03-13T09:02:56;94212.72;;;17.16;83.83
19783;BME280;10051;40.294;-3.754;2023-03-13T09:05:22;94207.66;;;17.32;82.96
19783;BME280;10051;40.294;-3.754;2023-03-13T09:07:48;94207.56;;;17.50;82.38
19783;BME280;10051;40.294;-3.754;2023-03-13T09:10:14;94162.66;;;17.27;81.57
19783;BME280;10051;40.294;-3.754;2023-03-13T09:12:40;94169.03;;;17.35;80.66
19783;BME280;10051;40.294;-3.754;2023-03-13T09:15:07;94187.22;;;17.54;80.79
19783;BME280;10051;40.294;-3.754;2023-03-13T09:17:32;94171.09;;;17.59;80.49
19783;BME280;10051;40.294;-3.754;2023-03-13T09:19:58;94172.84;;;17.76;80.04
19783;BME280;10051;40.294;-3.754;2023-03-13T09:22:24;94205.97;;;18.09;78.72
19783;BME280;10051;40.294;-3.754;2023-03-13T09:24:49;94197.97;;;18.30;78.41
19783;BME280;10051;40.294;-3.754;2023-03-13T09:27:15;94208.53;;;18.39;77.93
19783;BME280;10051;40.294;-3.754;2023-03-13T09:29:40;94204.25;;;18.47;76.56
19783;BME280;10051;40.294;-3.754;2023-03-13T09:32:09;94213.38;;;18.58;76.45
19783;BME280;10051;40.294;-3.754;2023-03-13T09:34:35;94189.81;;;18.48;76.37
19783;BME280;10051;40.294;-3.754;2023-03-13T09:37:00;94189.16;;;18.51;75.63
19783;BME280;10051;40.294;-3.754;2023-03-13T09:39:26;94165.41;;;18.46;76.41
19783;BME280;10051;40.294;-3.754;2023-03-13T09:42:46;94210.53;;;18.97;73.63
19783;BME280;10051;40.294;-3.754;2023-03-13T09:44:58;94193.69;;;18.84;73.22
19783;BME280;10051;40.294;-3.754;2023-03-13T09:50:33;94195.75;;;18.99;72.26
19783;BME280;10051;40.294;-3.754;2023-03-13T09:53:14;94166.41;;;18.87;72.38
19783;BME280;10051;40.294;-3.754;2023-03-13T09:55:44;94172.94;;;18.77;72.59
19783;BME280;10051;40.294;-3.754;2023-03-13T09:58:18;94195.94;;;18.94;72.69
19783;BME280;10051;40.294;-3.754;2023-03-13T10:00:56;94179.94;;;18.94;72.38
19783;BME280;10051;40.294;-3.754;2023-03-13T10:03:30;94206.09;;;19.13;71.73
19783;BME280;10051;40.294;-3.754;2023-03-13T10:06:03;94203.66;;;19.21;70.56
19783;BME280;10051;40.294;-3.754;2023-03-13T10:08:32;94210.88;;;19.32;69.64
19783;BME280;10051;40.294;-3.754;2023-03-13T10:13:52;94177.34;;;19.31;68.00
19783;BME280;10051;40.294;-3.754;2023-03-13T10:16:48;94210.22;;;19.60;67.61
19783;BME280;10051;40.294;-3.754;2023-03-13T10:19:17;94174.66;;;19.56;68.39
19783;BME280;10051;40.294;-3.754;2023-03-13T10:21:51;94199.75;;;19.80;68.35
19783;BME280;10051;40.294;-3.754;2023-03-13T10:27:19;94164.00;;;19.56;68.42
19783;BME280;10051;40.294;-3.754;2023-03-13T10:29:44;94171.19;;;19.68;68.87
19783;BME280;10051;40.294;-3.754;2023-03-13T10:32:15;94203.53;;;19.91;69.03
19783;BME280;10051;40.294;-3.754;2023-03-13T10:34:58;94208.75;;;20.00;68.80
19783;BME280;10051;40.294;-3.754;2023-03-13T10:39:53;94167.72;;;19.80;67.93
19783;BME280;10051;40.294;-3.754;2023-03-13T10:42:31;94187.50;;;20.04;66.31
19783;BME280;10051;40.294;-3.754;2023-03-13T10:45:00;94187.88;;;20.18;65.88
19783;BME280;10051;40.294;-3.754;2023-03-13T10:47:32;94174.94;;;20.33;65.45
19783;BME280;10051;40.294;-3.754;2023-03-13T10:49:58;94153.09;;;20.15;65.85
19783;BME280;10051;40.294;-3.754;2023-03-13T10:52:30;94164.47;;;20.40;65.90
19783;BME280;10051;40.294;-3.754;2023-03-13T10:55:05;94151.34;;;20.35;65.33
19783;BME280;10051;40.294;-3.754;2023-03-13T10:57:35;94158.97;;;20.49;63.87
19783;BME280;10051;40.294;-3.754;2023-03-13T11:02:48;94147.22;;;20.38;64.11
19783;BME280;10051;40.294;-3.754;2023-03-13T11:07:54;94159.31;;;20.47;64.78
19783;BME280;10051;40.294;-3.754;2023-03-13T11:12:51;94159.91;;;20.57;64.06
19783;BME280;10051;40.294;-3.754;2023-03-13T11:18:15;94138.00;;;20.35;64.07
19783;BME280;10051;40.294;-3.754;2023-03-13T11:20:46;94118.19;;;20.36;64.52
19783;BME280;10051;40.294;-3.754;2023-03-13T11:23:19;94158.72;;;20.70;63.18
19783;BME280;10051;40.294;-3.754;2023-03-13T11:26:18;94158.25;;;20.80;63.55
19783;BME280;10051;40.294;-3.754;2023-03-13T11:32:10;94154.72;;;20.92;61.63
19783;BME280;10051;40.294;-3.754;2023-03-13T11:34:47;94168.28;;;20.84;61.04
19783;BME280;10051;40.294;-3.754;2023-03-13T11:37:17;94133.38;;;20.64;61.50
19783;BME280;10051;40.294;-3.754;2023-03-13T11:40:00;94162.50;;;20.82;61.64
19783;BME280;10051;40.294;-3.754;2023-03-13T11:43:03;94145.88;;;20.76;59.40
19783;BME280;10051;40.294;-3.754;2023-03-13T11:48:14;94161.63;;;21.09;58.77
19783;BME280;10051;40.294;-3.754;2023-03-13T11:50:55;94138.53;;;21.17;56.53
19783;BME280;10051;40.294;-3.754;2023-03-13T11:56:16;94146.84;;;21.32;51.63
19783;BME280;10051;40.294;-3.754;2023-03-13T12:01:43;94114.63;;;21.08;52.99
19783;BME280;10051;40.294;-3.754;2023-03-13T12:04:26;94133.06;;;21.30;48.95
19783;BME280;10051;40.294;-3.754;2023-03-13T12:09:45;94138.59;;;21.21;45.48
19783;BME280;10051;40.294;-3.754;2023-03-13T12:14:48;94093.00;;;20.98;45.15
19783;BME280;10051;40.294;-3.754;2023-03-13T12:17:38;94121.19;;;21.27;46.30
19783;BME280;10051;40.294;-3.754;2023-03-13T12:20:54;94116.53;;;21.24;45.74
19783;BME280;10051;40.294;-3.754;2023-03-13T12:23:19;94107.47;;;21.13;44.48
19783;BME280;10051;40.294;-3.754;2023-03-13T12:25:58;94107.22;;;21.18;44.88
19783;BME280;10051;40.294;-3.754;2023-03-13T12:28:32;94094.28;;;21.20;45.23
19783;BME280;10051;40.294;-3.754;2023-03-13T12:31:06;94087.31;;;21.15;44.74
19783;BME280;10051;40.294;-3.754;2023-03-13T12:36:37;94077.47;;;21.19;45.78
19783;BME280;10051;40.294;-3.754;2023-03-13T12:39:33;94080.25;;;21.43;43.39
19783;BME280;10051;40.294;-3.754;2023-03-13T12:44:44;94036.59;;;21.19;45.18
19783;BME280;10051;40.294;-3.754;2023-03-13T12:53:49;94049.69;;;21.44;44.55
19783;BME280;10051;40.294;-3.754;2023-03-13T12:56:17;94028.63;;;21.22;44.15
19783;BME280;10051;40.294;-3.754;2023-03-13T13:03:55;94043.09;;;21.57;42.46
19783;BME280;10051;40.294;-3.754;2023-03-13T13:06:22;94015.88;;;21.51;43.00
19783;BME280;10051;40.294;-3.754;2023-03-13T13:09:05;94030.19;;;21.79;42.85
19783;BME280;10051;40.294;-3.754;2023-03-13T13:32:52;93988.91;;;22.46;41.17
19783;BME280;10051;40.294;-3.754;2023-03-13T13:35:30;93927.00;;;22.05;41.26
19783;BME280;10051;40.294;-3.754;2023-03-13T13:41:22;93983.81;;;22.41;41.05
19783;BME280;10051;40.294;-3.754;2023-03-13T13:44:23;93957.97;;;22.25;40.44
19783;BME280;10051;40.294;-3.754;2023-03-13T13:46:50;93936.28;;;22.11;38.14
19783;BME280;10051;40.294;-3.754;2023-03-13T13:49:20;93984.06;;;22.32;39.14
19783;BME280;10051;40.294;-3.754;2023-03-13T13:57:11;93987.88;;;22.08;36.52
19783;BME280;10051;40.294;-3.754;2023-03-13T13:59:43;93938.78;;;21.77;36.84
19783;BME280;10051;40.294;-3.754;2023-03-13T14:02:17;93962.09;;;21.99;36.89
19783;BME280;10051;40.294;-3.754;2023-03-13T14:05:06;93955.31;;;21.82;37.59
19783;BME280;10051;40.294;-3.754;2023-03-13T14:13:19;93945.81;;;21.85;36.03
19783;BME280;10051;40.294;-3.754;2023-03-13T14:15:55;93892.09;;;21.31;36.60
19783;BME280;10051;40.294;-3.754;2023-03-13T14:18:25;93935.41;;;21.80;36.29
19783;BME280;10051;40.294;-3.754;2023-03-13T14:21:10;93949.81;;;21.75;36.67
19783;BME280;10051;40.294;-3.754;2023-03-13T14:23:41;93941.09;;;21.78;37.70
19783;BME280;10051;40.294;-3.754;2023-03-13T14:26:20;93941.47;;;21.77;37.96
19783;BME280;10051;40.294;-3.754;2023-03-13T14:28:56;93921.91;;;21.73;38.21
19783;BME280;10051;40.294;-3.754;2023-03-13T14:31:32;93916.59;;;21.76;38.64
19783;BME280;10051;40.294;-3.754;2023-03-13T14:34:06;93835.94;;;21.31;38.91
19783;BME280;10051;40.294;-3.754;2023-03-13T14:41:47;93913.88;;;21.73;39.18
19783;BME280;10051;40.294;-3.754;2023-03-13T14:44:21;93920.75;;;21.54;38.73
19783;BME280;10051;40.294;-3.754;2023-03-13T14:46:48;93926.56;;;21.36;39.76